sensor_id;sensor_type;location;lat;lon;timestamp;pressure;altitude;pressure_sealevel;temperature;humidity
70217;BME280;65567;55.684;37.570;2023-05-12T00:00:17;99773.06;;;14.83;47.01
70217;BME280;65567;55.684;37.570;2023-05-12T00:02:44;99771.63;;;14.77;47.09
70217;BME280;65567;55.684;37.570;2023-05-12T00:05:10;99775.41;;;14.73;47.22
70217;BME280;65567;55.684;37.570;2023-05-12T00:07:36;99765.13;;;14.68;47.14
70217;BME280;65567;55.684;37.570;2023-05-12T00:10:03;99762.56;;;14.67;47.09
70217;BME280;65567;55.684;37.570;2023-05-12T00:12:30;99765.22;;;14.67;47.04
70217;BME280;65567;55.684;37.570;2023-05-12T00:14:57;99756.56;;;14.65;46.90
70217;BME280;65567;55.684;37.570;2023-05-12T00:17:25;99761.81;;;14.65;46.91
70217;BME280;65567;55.684;37.570;2023-05-12T00:19:53;99765.03;;;14.70;46.89
70217;BME280;65567;55.684;37.570;2023-05-12T00:22:19;99753.72;;;14.68;46.80
70217;BME280;65567;55.684;37.570;2023-05-12T00:24:45;99759.09;;;14.66;46.62
70217;BME280;65567;55.684;37.570;2023-05-12T00:27:11;99755.44;;;14.69;46.57
70217;BME280;65567;55.684;37.570;2023-05-12T00:29:39;99759.47;;;14.75;46.68
70217;BME280;65567;55.684;37.570;2023-05-12T00:32:05;99754.78;;;14.80;46.46
70217;BME280;65567;55.684;37.570;2023-05-12T00:34:32;99753.84;;;14.81;46.15
70217;BME280;65567;55.684;37.570;2023-05-12T00:36:58;99757.72;;;14.75;46.57
70217;BME280;65567;55.684;37.570;2023-05-12T00:39:24;99753.28;;;14.76;46.59
70217;BME280;65567;55.684;37.570;2023-05-12T00:41:57;99750.72;;;14.74;46.42
70217;BME280;65567;55.684;37.570;2023-05-12T00:44:23;99748.00;;;14.76;46.50
70217;BME280;65567;55.684;37.570;2023-05-12T00:46:49;99754.88;;;14.78;46.34
70217;BME280;65567;55.684;37.570;2023-05-12T00:49:16;99749.59;;;14.78;46.01
70217;BME280;65567;55.684;37.570;2023-05-12T00:51:42;99746.97;;;14.78;46.02
70217;BME280;65567;55.684;37.570;2023-05-12T00:54:08;99744.63;;;14.74;46.27
70217;BME280;65567;55.684;37.570;2023-05-12T00:56:35;99744.09;;;14.67;46.04
70217;BME280;65567;55.684;37.570;2023-05-12T00:59:05;99747.19;;;14.59;46.46
70217;BME280;65567;55.684;37.570;2023-05-12T01:01:32;99740.47;;;14.53;46.20
70217;BME280;65567;55.684;37.570;2023-05-12T01:03:59;99741.34;;;14.54;46.47
70217;BME280;65567;55.684;37.570;2023-05-12T01:06:53;99738.72;;;14.54;46.46
70217;BME280;65567;55.684;37.570;2023-05-12T01:09:20;99745.00;;;14.51;46.30
70217;BME280;65567;55.684;37.570;2023-05-12T01:11:46;99740.19;;;14.44;46.09
70217;BME280;65567;55.684;37.570;2023-05-12T01:14:12;99741.38;;;14.38;46.28
70217;BME280;65567;55.684;37.570;2023-05-12T01:16:44;99743.28;;;14.36;46.36
70217;BME280;65567;55.684;37.570;2023-05-12T01:22:11;99744.75;;;14.26;46.39
70217;BME280;65567;55.684;37.570;2023-05-12T01:24:56;99739.63;;;14.23;46.52
70217;BME280;65567;55.684;37.570;2023-05-12T01:27:24;99742.72;;;14.15;46.76
70217;BME280;65567;55.684;37.570;2023-05-12T01:29:54;99745.28;;;14.16;46.50
70217;BME280;65567;55.684;37.570;2023-05-12T01:32:21;99743.22;;;14.21;46.43
70217;BME280;65567;55.684;37.570;2023-05-12T01:34:48;99749.00;;;14.28;46.19
70217;BME280;65567;55.684;37.570;2023-05-12T01:37:15;99746.44;;;14.27;46.39
70217;BME280;65567;55.684;37.570;2023-05-12T01:39:41;99749.81;;;14.29;46.14
70217;BME280;65567;55.684;37.570;2023-05-12T01:42:07;99744.00;;;14.38;45.72
70217;BME280;65567;55.684;37.570;2023-05-12T01:44:33;99749.50;;;14.49;45.53
70217;BME280;65567;55.684;37.570;2023-05-12T01:46:59;99749.84;;;14.59;45.43
70217;BME280;65567;55.684;37.570;2023-05-12T01:49:28;99747.53;;;14.69;45.09
70217;BME280;65567;55.684;37.570;2023-05-12T01:51:54;99742.25;;;14.83;44.53
70217;BME280;65567;55.684;37.570;2023-05-12T01:54:21;99738.50;;;15.02;44.17
70217;BME280;65567;55.684;37.570;2023-05-12T01:56:47;99740.75;;;15.23;43.77
70217;BME280;65567;55.684;37.570;2023-05-12T01:59:13;99746.31;;;15.47;43.44
70217;BME280;65567;55.684;37.570;2023-05-12T02:01:39;99740.63;;;15.67;42.77
70217;BME280;65567;55.684;37.570;2023-05-12T02:04:05;99738.31;;;15.90;42.17
70217;BME280;65567;55.684;37.570;2023-05-12T02:06:33;99743.78;;;16.14;41.78
70217;BME280;65567;55.684;37.570;2023-05-12T02:08:59;99734.03;;;16.42;41.25
70217;BME280;65567;55.684;37.570;2023-05-12T02:11:25;99739.25;;;16.69;40.37
70217;BME280;65567;55.684;37.570;2023-05-12T02:13:51;99741.09;;;16.95;40.07
70217;BME280;65567;55.684;37.570;2023-05-12T02:16:18;99743.63;;;17.22;39.71
70217;BME280;65567;55.684;37.570;2023-05-12T02:18:43;99730.94;;;17.51;38.90
70217;BME280;65567;55.684;37.570;2023-05-12T02:21:09;99734.94;;;17.70;38.35
70217;BME280;65567;55.684;37.570;2023-05-12T02:23:35;99740.38;;;17.93;38.15
70217;BME280;65567;55.684;37.570;2023-05-12T02:26:01;99735.41;;;18.12;37.59
70217;BME280;65567;55.684;37.570;2023-05-12T02:28:27;99736.59;;;18.32;37.01
70217;BME280;65567;55.684;37.570;2023-05-12T02:30:53;99743.97;;;18.52;36.72
70217;BME280;65567;55.684;37.570;2023-05-12T02:33:20;99737.16;;;18.72;35.99
70217;BME280;65567;55.684;37.570;2023-05-12T02:35:47;99741.91;;;18.91;35.88
70217;BME280;65567;55.684;37.570;2023-05-12T02:38:13;99736.25;;;19.29;35.23
70217;BME280;65567;55.684;37.570;2023-05-12T02:40:40;99728.03;;;19.55;34.55
70217;BME280;65567;55.684;37.570;2023-05-12T02:43:07;99732.56;;;19.76;33.94
70217;BME280;65567;55.684;37.570;2023-05-12T02:45:33;99734.22;;;20.00;33.52
70217;BME280;65567;55.684;37.570;2023-05-12T02:47:59;99730.25;;;20.26;33.18
70217;BME280;65567;55.684;37.570;2023-05-12T02:50:25;99729.31;;;20.49;32.78
70217;BME280;65567;55.684;37.570;2023-05-12T02:52:51;99735.00;;;20.65;32.55
70217;BME280;65567;55.684;37.570;2023-05-12T02:55:17;99735.13;;;20.85;32.07
70217;BME280;65567;55.684;37.570;2023-05-12T02:57:43;99742.25;;;21.05;31.84
70217;BME280;65567;55.684;37.570;2023-05-12T03:00:10;99744.31;;;21.23;31.57
70217;BME280;65567;55.684;37.570;2023-05-12T03:02:38;99738.19;;;21.42;31.30
70217;BME280;65567;55.684;37.570;2023-05-12T03:05:04;99740.53;;;21.66;30.92
70217;BME280;65567;55.684;37.570;2023-05-12T03:07:30;99744.53;;;22.01;30.54
70217;BME280;65567;55.684;37.570;2023-05-12T03:09:57;99738.34;;;22.30;30.16
70217;BME280;65567;55.684;37.570;2023-05-12T03:12:23;99733.41;;;22.74;29.53
70217;BME280;65567;55.684;37.570;2023-05-12T03:14:50;99740.19;;;23.06;29.13
70217;BME280;65567;55.684;37.570;2023-05-12T03:17:16;99737.28;;;23.37;28.61
70217;BME280;65567;55.684;37.570;2023-05-12T03:19:42;99729.03;;;23.76;28.29
70217;BME280;65567;55.684;37.570;2023-05-12T03:22:08;99734.84;;;24.18;27.51
70217;BME280;65567;55.684;37.570;2023-05-12T03:24:34;99730.53;;;24.25;27.20
70217;BME280;65567;55.684;37.570;2023-05-12T03:27:01;99725.94;;;24.35;27.01
70217;BME280;65567;55.684;37.570;2023-05-12T03:29:27;99739.69;;;24.40;27.09
70217;BME280;65567;55.684;37.570;2023-05-12T03:31:53;99736.28;;;24.56;26.79
70217;BME280;65567;55.684;37.570;2023-05-12T03:34:19;99737.41;;;24.28;26.79
70217;BME280;65567;55.684;37.570;2023-05-12T03:36:45;99739.00;;;24.38;26.77
70217;BME280;65567;55.684;37.570;2023-05-12T03:39:11;99736.56;;;24.45;26.56
70217;BME280;65567;55.684;37.570;2023-05-12T03:41:37;99731.38;;;24.25;26.58
70217;BME280;65567;55.684;37.570;2023-05-12T03:44:04;99731.47;;;24.16;27.25
70217;BME280;65567;55.684;37.570;2023-05-12T03:46:33;99729.19;;;23.75;27.47
70217;BME280;65567;55.684;37.570;2023-05-12T03:48:59;99727.94;;;23.23;28.01
70217;BME280;65567;55.684;37.570;2023-05-12T03:51:25;99733.28;;;22.76;28.39
70217;BME280;65567;55.684;37.570;2023-05-12T03:53:52;99735.53;;;22.32;28.83
70217;BME280;65567;55.684;37.570;2023-05-12T03:56:18;99735.13;;;22.17;29.50
70217;BME280;65567;55.684;37.570;2023-05-12T03:58:44;99744.41;;;22.13;29.55
70217;BME280;65567;55.684;37.570;2023-05-12T04:01:12;99737.50;;;22.00;29.81
70217;BME280;65567;55.684;37.570;2023-05-12T04:03:38;99745.63;;;21.69;30.00
70217;BME280;65567;55.684;37.570;2023-05-12T04:06:05;99744.38;;;21.42;30.69
70217;BME280;65567;55.684;37.570;2023-05-12T04:08:32;99741.44;;;21.15;31.23
70217;BME280;65567;55.684;37.570;2023-05-12T04:10:59;99738.25;;;20.90;31.89
70217;BME280;65567;55.684;37.570;2023-05-12T04:13:27;99738.72;;;20.74;31.78
70217;BME280;65567;55.684;37.570;2023-05-12T04:15:59;99734.03;;;20.66;31.79
70217;BME280;65567;55.684;37.570;2023-05-12T04:18:26;99732.44;;;20.75;31.66
70217;BME280;65567;55.684;37.570;2023-05-12T04:20:53;99731.84;;;20.71;31.59
70217;BME280;65567;55.684;37.570;2023-05-12T04:23:19;99733.41;;;20.74;31.93
70217;BME280;65567;55.684;37.570;2023-05-12T04:25:46;99731.31;;;20.77;32.44
70217;BME280;65567;55.684;37.570;2023-05-12T04:28:12;99738.22;;;20.80;32.63
70217;BME280;65567;55.684;37.570;2023-05-12T04:30:39;99727.56;;;20.80;32.56
70217;BME280;65567;55.684;37.570;2023-05-12T04:33:05;99729.81;;;20.85;32.50
70217;BME280;65567;55.684;37.570;2023-05-12T04:35:31;99724.75;;;20.82;32.45
70217;BME280;65567;55.684;37.570;2023-05-12T04:37:57;99729.66;;;20.65;32.70
70217;BME280;65567;55.684;37.570;2023-05-12T04:40:26;99736.88;;;20.53;32.64
70217;BME280;65567;55.684;37.570;2023-05-12T04:42:52;99731.97;;;20.49;32.92
70217;BME280;65567;55.684;37.570;2023-05-12T04:45:18;99740.53;;;20.52;32.95
70217;BME280;65567;55.684;37.570;2023-05-12T04:47:44;99729.94;;;20.62;32.92
70217;BME280;65567;55.684;37.570;2023-05-12T04:50:10;99730.97;;;20.92;32.81
70217;BME280;65567;55.684;37.570;2023-05-12T04:52:37;99726.00;;;21.39;31.87
70217;BME280;65567;55.684;37.570;2023-05-12T04:55:04;99716.53;;;21.66;31.45
70217;BME280;65567;55.684;37.570;2023-05-12T04:57:30;99730.75;;;21.96;31.06
70217;BME280;65567;55.684;37.570;2023-05-12T04:59:56;99724.03;;;22.11;30.50
70217;BME280;65567;55.684;37.570;2023-05-12T05:02:24;99723.34;;;22.29;30.28
70217;BME280;65567;55.684;37.570;2023-05-12T05:04:50;99741.72;;;22.32;29.92
70217;BME280;65567;55.684;37.570;2023-05-12T05:07:17;99733.03;;;22.50;29.92
70217;BME280;65567;55.684;37.570;2023-05-12T05:09:43;99731.28;;;22.88;29.34
70217;BME280;65567;55.684;37.570;2023-05-12T05:12:09;99721.69;;;23.61;29.40
70217;BME280;65567;55.684;37.570;2023-05-12T05:14:35;99722.41;;;24.53;28.14
70217;BME280;65567;55.684;37.570;2023-05-12T05:17:01;99727.09;;;25.38;26.68
70217;BME280;65567;55.684;37.570;2023-05-12T05:19:28;99719.41;;;26.19;25.12
70217;BME280;65567;55.684;37.570;2023-05-12T05:21:54;99724.88;;;27.00;23.99
70217;BME280;65567;55.684;37.570;2023-05-12T05:24:20;99722.41;;;27.69;23.27
70217;BME280;65567;55.684;37.570;2023-05-12T05:26:46;99724.00;;;28.33;22.33
70217;BME280;65567;55.684;37.570;2023-05-12T05:29:13;99725.44;;;28.82;21.79
70217;BME280;65567;55.684;37.570;2023-05-12T05:31:40;99723.66;;;29.34;20.95
70217;BME280;65567;55.684;37.570;2023-05-12T05:34:06;99720.03;;;29.79;20.52
70217;BME280;65567;55.684;37.570;2023-05-12T05:36:32;99718.72;;;30.11;20.15
70217;BME280;65567;55.684;37.570;2023-05-12T05:38:58;99720.84;;;30.44;19.88
70217;BME280;65567;55.684;37.570;2023-05-12T05:41:24;99727.72;;;30.69;19.47
70217;BME280;65567;55.684;37.570;2023-05-12T05:43:51;99722.16;;;30.77;19.33
70217;BME280;65567;55.684;37.570;2023-05-12T05:46:17;99726.13;;;30.81;19.33
70217;BME280;65567;55.684;37.570;2023-05-12T05:48:43;99715.00;;;30.97;18.87
70217;BME280;65567;55.684;37.570;2023-05-12T05:51:09;99722.72;;;31.36;19.19
70217;BME280;65567;55.684;37.570;2023-05-12T05:53:38;99708.91;;;31.66;18.29
70217;BME280;65567;55.684;37.570;2023-05-12T05:56:04;99718.69;;;31.73;18.43
70217;BME280;65567;55.684;37.570;2023-05-12T05:58:30;99718.75;;;32.07;18.38
70217;BME280;65567;55.684;37.570;2023-05-12T06:00:56;99712.34;;;32.48;17.57
70217;BME280;65567;55.684;37.570;2023-05-12T06:03:22;99709.41;;;32.70;17.37
70217;BME280;65567;55.684;37.570;2023-05-12T06:05:48;99713.56;;;32.66;16.85
70217;BME280;65567;55.684;37.570;2023-05-12T06:08:14;99714.81;;;32.63;16.90
70217;BME280;65567;55.684;37.570;2023-05-12T06:10:41;99709.19;;;32.78;16.78
70217;BME280;65567;55.684;37.570;2023-05-12T06:13:07;99710.44;;;32.82;16.94
70217;BME280;65567;55.684;37.570;2023-05-12T06:15:33;99714.16;;;33.01;16.36
70217;BME280;65567;55.684;37.570;2023-05-12T06:17:59;99710.97;;;33.11;16.46
70217;BME280;65567;55.684;37.570;2023-05-12T06:20:25;99711.97;;;33.23;16.26
70217;BME280;65567;55.684;37.570;2023-05-12T06:22:51;99708.03;;;33.19;15.93
70217;BME280;65567;55.684;37.570;2023-05-12T06:25:17;99716.78;;;33.28;15.81
70217;BME280;65567;55.684;37.570;2023-05-12T06:27:43;99712.00;;;33.17;15.89
70217;BME280;65567;55.684;37.570;2023-05-12T06:30:10;99714.75;;;33.10;15.79
70217;BME280;65567;55.684;37.570;2023-05-12T06:32:36;99711.28;;;32.83;15.91
70217;BME280;65567;55.684;37.570;2023-05-12T06:35:02;99703.38;;;32.54;15.85
70217;BME280;65567;55.684;37.570;2023-05-12T06:37:28;99706.28;;;32.53;16.06
70217;BME280;65567;55.684;37.570;2023-05-12T06:39:54;99706.50;;;32.38;16.19
70217;BME280;65567;55.684;37.570;2023-05-12T06:42:20;99707.09;;;32.00;16.32
70217;BME280;65567;55.684;37.570;2023-05-12T06:44:46;99706.22;;;31.86;16.84
70217;BME280;65567;55.684;37.570;2023-05-12T06:47:12;99705.84;;;31.95;16.42
70217;BME280;65567;55.684;37.570;2023-05-12T06:49:38;99706.22;;;31.99;15.94
70217;BME280;65567;55.684;37.570;2023-05-12T06:52:04;99698.38;;;32.24;16.51
70217;BME280;65567;55.684;37.570;2023-05-12T06:54:31;99698.34;;;32.65;16.02
70217;BME280;65567;55.684;37.570;2023-05-12T06:56:57;99702.91;;;32.84;16.10
70217;BME280;65567;55.684;37.570;2023-05-12T06:59:23;99702.06;;;32.97;15.25
70217;BME280;65567;55.684;37.570;2023-05-12T07:01:50;99698.63;;;33.29;14.21
70217;BME280;65567;55.684;37.570;2023-05-12T07:04:16;99697.84;;;33.60;14.12
70217;BME280;65567;55.684;37.570;2023-05-12T07:06:42;99698.34;;;33.82;14.67
70217;BME280;65567;55.684;37.570;2023-05-12T07:09:08;99697.50;;;33.75;13.71
70217;BME280;65567;55.684;37.570;2023-05-12T07:11:34;99698.59;;;33.35;13.94
70217;BME280;65567;55.684;37.570;2023-05-12T07:14:00;99696.22;;;32.93;13.94
70217;BME280;65567;55.684;37.570;2023-05-12T07:16:26;99704.59;;;32.85;14.98
70217;BME280;65567;55.684;37.570;2023-05-12T07:18:52;99701.66;;;32.87;14.58
70217;BME280;65567;55.684;37.570;2023-05-12T07:21:18;99696.25;;;32.87;14.20
70217;BME280;65567;55.684;37.570;2023-05-12T07:23:44;99700.28;;;33.16;15.30
70217;BME280;65567;55.684;37.570;2023-05-12T07:26:10;99697.88;;;33.53;15.72
70217;BME280;65567;55.684;37.570;2023-05-12T07:28:36;99697.44;;;33.95;14.55
70217;BME280;65567;55.684;37.570;2023-05-12T07:31:06;99692.66;;;34.16;13.98
70217;BME280;65567;55.684;37.570;2023-05-12T07:33:33;99688.91;;;34.42;14.09
70217;BME280;65567;55.684;37.570;2023-05-12T07:36:00;99693.56;;;34.60;13.96
70217;BME280;65567;55.684;37.570;2023-05-12T07:38:27;99684.19;;;34.74;13.93
70217;BME280;65567;55.684;37.570;2023-05-12T07:40:53;99688.50;;;34.82;13.98
70217;BME280;65567;55.684;37.570;2023-05-12T07:43:19;99691.81;;;34.91;13.16
70217;BME280;65567;55.684;37.570;2023-05-12T07:45:45;99688.97;;;34.79;13.13
70217;BME280;65567;55.684;37.570;2023-05-12T07:48:11;99687.00;;;34.68;13.00
70217;BME280;65567;55.684;37.570;2023-05-12T07:50:37;99680.03;;;34.72;12.82
70217;BME280;65567;55.684;37.570;2023-05-12T07:53:04;99683.72;;;34.78;12.60
70217;BME280;65567;55.684;37.570;2023-05-12T07:55:33;99678.84;;;34.17;12.42
70217;BME280;65567;55.684;37.570;2023-05-12T07:57:59;99683.25;;;33.48;13.11
70217;BME280;65567;55.684;37.570;2023-05-12T08:00:25;99678.84;;;33.53;13.10
70217;BME280;65567;55.684;37.570;2023-05-12T08:02:51;99674.69;;;33.51;13.93
70217;BME280;65567;55.684;37.570;2023-05-12T08:05:18;99684.31;;;33.85;14.34
70217;BME280;65567;55.684;37.570;2023-05-12T08:07:44;99678.84;;;34.17;12.99
70217;BME280;65567;55.684;37.570;2023-05-12T08:10:11;99677.09;;;34.30;12.80
70217;BME280;65567;55.684;37.570;2023-05-12T08:12:38;99674.00;;;33.94;12.74
70217;BME280;65567;55.684;37.570;2023-05-12T08:15:06;99676.31;;;33.58;13.23
70217;BME280;65567;55.684;37.570;2023-05-12T08:17:32;99679.28;;;33.50;14.07
70217;BME280;65567;55.684;37.570;2023-05-12T08:19:58;99673.25;;;33.48;12.63
70217;BME280;65567;55.684;37.570;2023-05-12T08:22:24;99676.63;;;33.37;12.32
70217;BME280;65567;55.684;37.570;2023-05-12T08:24:50;99680.00;;;33.25;12.25
70217;BME280;65567;55.684;37.570;2023-05-12T08:27:17;99676.09;;;33.15;11.99
70217;BME280;65567;55.684;37.570;2023-05-12T08:29:44;99671.84;;;32.53;12.01
70217;BME280;65567;55.684;37.570;2023-05-12T08:32:10;99669.78;;;32.35;13.05
70217;BME280;65567;55.684;37.570;2023-05-12T08:34:36;99670.78;;;32.61;12.52
70217;BME280;65567;55.684;37.570;2023-05-12T08:37:02;99666.75;;;32.90;13.60
70217;BME280;65567;55.684;37.570;2023-05-12T08:39:29;99678.53;;;33.36;12.06
70217;BME280;65567;55.684;37.570;2023-05-12T08:44:42;99667.88;;;32.16;11.93
70217;BME280;65567;55.684;37.570;2023-05-12T08:47:08;99663.69;;;31.79;12.46
70217;BME280;65567;55.684;37.570;2023-05-12T08:49:38;99653.16;;;31.29;12.34
70217;BME280;65567;55.684;37.570;2023-05-12T08:52:05;99650.88;;;30.91;12.42
70217;BME280;65567;55.684;37.570;2023-05-12T08:54:32;99660.19;;;30.47;13.00
70217;BME280;65567;55.684;37.570;2023-05-12T08:57:00;99659.56;;;30.23;13.34
70217;BME280;65567;55.684;37.570;2023-05-12T08:59:29;99656.53;;;30.33;13.28
70217;BME280;65567;55.684;37.570;2023-05-12T09:01:55;99660.34;;;30.74;13.44
70217;BME280;65567;55.684;37.570;2023-05-12T09:04:23;99657.34;;;31.39;13.35
70217;BME280;65567;55.684;37.570;2023-05-12T09:06:49;99645.38;;;31.88;12.43
70217;BME280;65567;55.684;37.570;2023-05-12T09:09:16;99648.44;;;31.58;12.50
70217;BME280;65567;55.684;37.570;2023-05-12T09:11:43;99642.34;;;31.36;13.11
70217;BME280;65567;55.684;37.570;2023-05-12T09:14:17;99640.28;;;31.45;12.77
70217;BME280;65567;55.684;37.570;2023-05-12T09:16:49;99641.31;;;31.44;13.05
70217;BME280;65567;55.684;37.570;2023-05-12T09:19:20;99629.94;;;31.82;12.84
70217;BME280;65567;55.684;37.570;2023-05-12T09:21:47;99631.81;;;31.88;12.67
70217;BME280;65567;55.684;37.570;2023-05-12T09:24:13;99624.50;;;31.69;12.96
70217;BME280;65567;55.684;37.570;2023-05-12T09:26:53;99640.50;;;31.02;12.97
70217;BME280;65567;55.684;37.570;2023-05-12T09:29:20;99630.38;;;30.12;13.84
70217;BME280;65567;55.684;37.570;2023-05-12T09:31:53;99636.69;;;30.19;13.89
70217;BME280;65567;55.684;37.570;2023-05-12T09:34:26;99629.78;;;30.45;14.46
70217;BME280;65567;55.684;37.570;2023-05-12T09:37:01;99623.94;;;31.11;13.37
70217;BME280;65567;55.684;37.570;2023-05-12T09:39:28;99617.50;;;31.19;12.92
70217;BME280;65567;55.684;37.570;2023-05-12T09:41:54;99625.44;;;30.79;12.82
70217;BME280;65567;55.684;37.570;2023-05-12T09:44:20;99617.81;;;30.54;13.58
70217;BME280;65567;55.684;37.570;2023-05-12T09:46:47;99620.78;;;30.66;13.29
70217;BME280;65567;55.684;37.570;2023-05-12T09:49:21;99623.13;;;29.91;14.10
70217;BME280;65567;55.684;37.570;2023-05-12T09:51:57;99623.25;;;29.24;14.60
70217;BME280;65567;55.684;37.570;2023-05-12T09:54:25;99628.13;;;29.14;14.47
70217;BME280;65567;55.684;37.570;2023-05-12T09:56:51;99628.13;;;29.14;14.99
70217;BME280;65567;55.684;37.570;2023-05-12T09:59:19;99617.31;;;29.14;15.03
70217;BME280;65567;55.684;37.570;2023-05-12T10:01:52;99616.66;;;29.12;15.14
70217;BME280;65567;55.684;37.570;2023-05-12T10:04:18;99620.56;;;29.09;15.01
70217;BME280;65567;55.684;37.570;2023-05-12T10:06:45;99617.72;;;28.96;14.87
70217;BME280;65567;55.684;37.570;2023-05-12T10:09:19;99616.72;;;28.82;15.56
70217;BME280;65567;55.684;37.570;2023-05-12T10:11:50;99620.34;;;28.89;15.35
70217;BME280;65567;55.684;37.570;2023-05-12T10:14:17;99627.38;;;29.05;14.56
70217;BME280;65567;55.684;37.570;2023-05-12T10:16:45;99609.16;;;29.44;14.73
70217;BME280;65567;55.684;37.570;2023-05-12T10:19:12;99618.19;;;29.94;14.21
70217;BME280;65567;55.684;37.570;2023-05-12T10:21:44;99616.31;;;30.23;14.12
70217;BME280;65567;55.684;37.570;2023-05-12T10:24:13;99614.91;;;30.27;13.75
70217;BME280;65567;55.684;37.570;2023-05-12T10:26:41;99610.84;;;29.66;13.77
70217;BME280;65567;55.684;37.570;2023-05-12T10:29:09;99611.94;;;29.14;14.53
70217;BME280;65567;55.684;37.570;2023-05-12T10:31:36;99608.97;;;29.09;14.69
70217;BME280;65567;55.684;37.570;2023-05-12T10:34:03;99603.91;;;28.69;14.63
70217;BME280;65567;55.684;37.570;2023-05-12T10:36:30;99607.19;;;27.88;15.43
70217;BME280;65567;55.684;37.570;2023-05-12T10:39:04;99605.53;;;27.41;16.00
70217;BME280;65567;55.684;37.570;2023-05-12T10:41:32;99608.53;;;27.37;16.49
70217;BME280;65567;55.684;37.570;2023-05-12T10:43:58;99606.25;;;27.58;16.44
70217;BME280;65567;55.684;37.570;2023-05-12T10:46:25;99615.34;;;27.80;15.98
70217;BME280;65567;55.684;37.570;2023-05-12T10:51:28;99609.16;;;28.32;15.48
70217;BME280;65567;55.684;37.570;2023-05-12T10:54:05;99614.66;;;28.39;16.24
70217;BME280;65567;55.684;37.570;2023-05-12T10:59:22;99620.16;;;28.46;15.98
70217;BME280;65567;55.684;37.570;2023-05-12T11:02:14;99608.31;;;28.32;15.89
70217;BME280;65567;55.684;37.570;2023-05-12T11:04:48;99608.59;;;28.22;16.02
70217;BME280;65567;55.684;37.570;2023-05-12T11:07:20;99611.00;;;28.17;15.76
70217;BME280;65567;55.684;37.570;2023-05-12T11:09:46;99610.34;;;27.92;15.91
70217;BME280;65567;55.684;37.570;2023-05-12T11:12:13;99612.16;;;27.76;16.27
70217;BME280;65567;55.684;37.570;2023-05-12T11:14:41;99615.41;;;27.72;16.34
70217;BME280;65567;55.684;37.570;2023-05-12T11:17:07;99615.16;;;27.58;16.48
70217;BME280;65567;55.684;37.570;2023-05-12T11:19:37;99616.34;;;27.56;16.60
70217;BME280;65567;55.684;37.570;2023-05-12T11:22:05;99605.16;;;27.44;16.83
70217;BME280;65567;55.684;37.570;2023-05-12T11:24:34;99610.22;;;27.47;17.14
70217;BME280;65567;55.684;37.570;2023-05-12T11:27:02;99613.97;;;27.61;16.72
70217;BME280;65567;55.684;37.570;2023-05-12T11:29:28;99609.78;;;27.58;16.47
70217;BME280;65567;55.684;37.570;2023-05-12T11:31:55;99602.00;;;27.40;16.42
70217;BME280;65567;55.684;37.570;2023-05-12T11:34:22;99595.53;;;27.18;16.52
70217;BME280;65567;55.684;37.570;2023-05-12T11:36:51;99599.88;;;27.27;16.48
70217;BME280;65567;55.684;37.570;2023-05-12T11:39:19;99597.19;;;27.27;16.82
70217;BME280;65567;55.684;37.570;2023-05-12T11:41:46;99592.09;;;27.32;16.51
70217;BME280;65567;55.684;37.570;2023-05-12T11:44:20;99601.47;;;27.45;16.67
70217;BME280;65567;55.684;37.570;2023-05-12T11:47:11;99593.31;;;27.53;16.29
70217;BME280;65567;55.684;37.570;2023-05-12T11:49:53;99595.19;;;27.52;16.09
70217;BME280;65567;55.684;37.570;2023-05-12T11:52:21;99578.94;;;27.37;16.50
70217;BME280;65567;55.684;37.570;2023-05-12T11:54:58;99573.56;;;27.37;16.08
70217;BME280;65567;55.684;37.570;2023-05-12T11:57:32;99587.34;;;27.43;15.78
70217;BME280;65567;55.684;37.570;2023-05-12T12:00:03;99572.69;;;27.45;16.08
70217;BME280;65567;55.684;37.570;2023-05-12T12:02:30;99584.84;;;27.10;16.07
70217;BME280;65567;55.684;37.570;2023-05-12T12:04:57;99581.47;;;26.76;16.41
70217;BME280;65567;55.684;37.570;2023-05-12T12:09:55;99582.50;;;26.67;16.83
70217;BME280;65567;55.684;37.570;2023-05-12T12:12:22;99583.66;;;26.73;16.52
70217;BME280;65567;55.684;37.570;2023-05-12T12:14:48;99586.63;;;26.38;16.59
70217;BME280;65567;55.684;37.570;2023-05-12T12:17:14;99584.81;;;26.22;16.67
70217;BME280;65567;55.684;37.570;2023-05-12T12:19:40;99579.25;;;26.15;17.30
70217;BME280;65567;55.684;37.570;2023-05-12T12:22:06;99577.94;;;26.19;16.73
70217;BME280;65567;55.684;37.570;2023-05-12T12:24:32;99576.09;;;26.12;17.04
70217;BME280;65567;55.684;37.570;2023-05-12T12:26:58;99569.03;;;26.02;17.03
70217;BME280;65567;55.684;37.570;2023-05-12T12:29:24;99571.41;;;25.97;17.06
70217;BME280;65567;55.684;37.570;2023-05-12T12:31:52;99562.31;;;25.98;17.31
70217;BME280;65567;55.684;37.570;2023-05-12T12:34:19;99566.38;;;26.11;17.43
70217;BME280;65567;55.684;37.570;2023-05-12T12:36:45;99566.66;;;26.32;17.38
70217;BME280;65567;55.684;37.570;2023-05-12T12:39:15;99554.84;;;26.50;17.27
70217;BME280;65567;55.684;37.570;2023-05-12T12:41:42;99556.09;;;26.70;17.52
70217;BME280;65567;55.684;37.570;2023-05-12T12:44:08;99554.09;;;26.73;17.32
70217;BME280;65567;55.684;37.570;2023-05-12T12:46:34;99562.84;;;26.75;17.24
70217;BME280;65567;55.684;37.570;2023-05-12T12:49:00;99563.47;;;26.85;17.42
70217;BME280;65567;55.684;37.570;2023-05-12T12:51:28;99549.97;;;26.93;17.10
70217;BME280;65567;55.684;37.570;2023-05-12T12:53:55;99556.50;;;26.99;16.98
70217;BME280;65567;55.684;37.570;2023-05-12T12:56:24;99557.34;;;26.99;16.71
70217;BME280;65567;55.684;37.570;2023-05-12T12:58:51;99560.03;;;26.99;17.07
70217;BME280;65567;55.684;37.570;2023-05-12T13:01:17;99553.09;;;27.05;16.68
70217;BME280;65567;55.684;37.570;2023-05-12T13:03:43;99552.63;;;27.01;16.69